Time;durP1;ratioP1;P1;durP2;ratioP2;P2;SDS_P1;SDS_P2;PMS_P1;PMS_P2;Temp;Humidity;BMP_temperature;BMP_pressure;BME280_temperature;BME280_humidity;BME280_pressure;Samples;Min_cycle;Max_cycle;Signal;HPM_P1;HPM_P2
2022/05/01 03:02:27;;;;;;;1.45;1.35;;;20.80;48.60;;;;;;5006834;23;45351;-60
2022/05/01 03:04:53;;;;;;;1.77;1.67;;;20.80;48.60;;;;;;4925333;28;45348;-61
2022/05/01 03:07:19;;;;;;;1.85;1.75;;;20.80;48.50;;;;;;4952793;28;45065;-57
2022/05/01 03:09:44;;;;;;;1.70;1.60;;;20.80;48.60;;;;;;4905360;28;45979;-62
2022/05/01 03:12:10;;;;;;;1.60;1.50;;;20.80;48.50;;;;;;4911146;28;45188;-60
2022/05/01 03:14:35;;;;;;;1.90;1.80;;;20.80;48.60;;;;;;4941318;28;45154;-60
2022/05/01 03:17:01;;;;;;;1.63;1.50;;;20.70;48.60;;;;;;4904685;28;45480;-62
2022/05/01 03:22:11;;;;;;;1.42;1.33;;;20.70;48.60;;;;;;4915797;28;45268;-61
2022/05/01 03:24:38;;;;;;;1.70;1.60;;;20.70;48.50;;;;;;4939357;28;44722;-58
2022/05/01 03:27:04;;;;;;;2.17;1.83;;;20.70;48.60;;;;;;4923710;28;45243;-61
2022/05/01 03:29:30;;;;;;;1.70;1.60;;;20.70;48.60;;;;;;4924894;28;46533;-59
2022/05/01 03:31:56;;;;;;;1.70;1.50;;;20.70;48.60;;;;;;4920796;28;45135;-61
2022/05/01 03:34:25;;;;;;;1.60;1.45;;;20.70;48.50;;;;;;4946411;28;45217;-58
2022/05/01 03:36:50;;;;;;;1.83;1.67;;;20.80;48.60;;;;;;4933441;28;45172;-60
2022/05/01 03:39:16;;;;;;;2.20;1.75;;;20.70;48.60;;;;;;4928301;28;46906;-59
2022/05/01 03:41:42;;;;;;;2.15;1.60;;;20.70;48.60;;;;;;4904957;28;45102;-60
2022/05/01 03:44:08;;;;;;;1.67;1.58;;;20.70;48.50;;;;;;4909714;28;45902;-60
2022/05/01 03:46:36;;;;;;;1.55;1.45;;;20.70;48.50;;;;;;4933315;28;45306;-59
2022/05/01 03:49:03;;;;;;;1.70;1.60;;;20.70;48.60;;;;;;4917060;28;46210;-61
2022/05/01 03:51:31;;;;;;;1.75;1.65;;;20.70;48.60;;;;;;4927690;28;45207;-59
2022/05/01 03:54:02;;;;;;;1.58;1.48;;;20.70;48.60;;;;;;4922725;28;45321;-61
2022/05/01 03:56:31;;;;;;;2.05;1.85;;;20.70;48.60;;;;;;4921647;28;45363;-61
2022/05/01 03:58:57;;;;;;;3.08;1.42;;;20.70;48.60;;;;;;4921775;28;45326;-62
2022/05/01 04:01:24;;;;;;;1.73;1.63;;;20.70;48.60;;;;;;4903727;28;45156;-61
2022/05/01 04:03:49;;;;;;;1.77;1.67;;;20.70;48.60;;;;;;4930609;28;45105;-62
2022/05/01 04:06:15;;;;;;;1.60;1.50;;;20.70;48.60;;;;;;4938119;28;44794;-60
2022/05/01 04:08:42;;;;;;;1.52;1.42;;;20.70;48.60;;;;;;4921857;28;46801;-60
2022/05/01 04:11:07;;;;;;;1.60;1.50;;;20.70;48.60;;;;;;4943392;28;45217;-60
2022/05/01 04:13:33;;;;;;;1.73;1.63;;;20.70;48.60;;;;;;4917632;28;46627;-61
2022/05/01 04:15:58;;;;;;;1.70;1.60;;;20.70;48.60;;;;;;4940544;28;44760;-61
2022/05/01 04:18:25;;;;;;;1.75;1.65;;;20.70;48.60;;;;;;4918816;28;45500;-61
2022/05/01 04:20:52;;;;;;;3.45;1.75;;;20.70;48.60;;;;;;4921841;28;45261;-61
2022/05/01 04:23:18;;;;;;;2.00;1.80;;;20.70;48.70;;;;;;4920522;28;45261;-59
2022/05/01 04:25:43;;;;;;;1.58;1.48;;;20.70;48.60;;;;;;4921009;28;46882;-59
2022/05/01 04:28:10;;;;;;;1.92;1.83;;;20.70;48.60;;;;;;4909856;28;45471;-61
2022/05/01 04:30:36;;;;;;;1.75;1.63;;;20.70;48.50;;;;;;4898809;28;45280;-60
2022/05/01 04:33:04;;;;;;;1.70;1.60;;;20.70;48.60;;;;;;4904158;28;44753;-60
2022/05/01 04:35:42;;;;;;;3.30;1.50;;;20.60;48.50;;;;;;4915787;28;45322;-59
2022/05/01 04:38:09;;;;;;;2.10;1.90;;;20.60;48.50;;;;;;4934822;28;45332;-62
2022/05/01 04:40:35;;;;;;;1.50;1.40;;;20.60;48.60;;;;;;4939487;28;45228;-61
2022/05/01 04:43:08;;;;;;;1.83;1.42;;;20.60;48.60;;;;;;4933350;28;45459;-59
2022/05/01 04:45:34;;;;;;;1.73;1.63;;;20.60;48.60;;;;;;4932342;28;45361;-58
2022/05/01 04:48:01;;;;;;;1.70;1.58;;;20.60;48.60;;;;;;4932177;28;45112;-60
2022/05/01 04:50:26;;;;;;;1.70;1.60;;;20.60;48.60;;;;;;4911819;28;44728;-61
2022/05/01 04:52:52;;;;;;;1.83;1.70;;;20.60;48.60;;;;;;4938502;28;45684;-61
2022/05/01 04:55:18;;;;;;;1.88;1.77;;;20.60;48.50;;;;;;4924278;28;45355;-58
2022/05/01 04:57:43;;;;;;;1.50;1.40;;;20.60;48.50;;;;;;4924298;28;45288;-59
2022/05/01 05:00:10;;;;;;;1.60;1.50;;;20.60;49.10;;;;;;4907397;28;45272;-61
2022/05/01 05:02:39;;;;;;;1.90;1.70;;;20.60;48.60;;;;;;4942615;28;45190;-61
2022/05/01 05:05:09;;;;;;;2.65;1.75;;;20.60;48.60;;;;;;4915272;28;44826;-61
2022/05/01 05:07:35;;;;;;;1.80;1.70;;;20.60;48.60;;;;;;4936390;28;46369;-61
2022/05/01 05:10:03;;;;;;;1.63;1.52;;;20.60;48.60;;;;;;4924891;28;45380;-60
2022/05/01 05:12:29;;;;;;;1.60;1.50;;;20.60;48.60;;;;;;4899923;28;44925;-61
2022/05/01 05:14:58;;;;;;;1.70;1.60;;;20.60;48.60;;;;;;4916009;28;45363;-61
2022/05/01 05:17:24;;;;;;;1.70;1.60;;;20.60;48.60;;;;;;4918728;28;45859;-60
2022/05/01 05:19:50;;;;;;;1.92;1.63;;;20.60;48.60;;;;;;4928991;28;44689;-59
2022/05/01 05:22:15;;;;;;;1.88;1.70;;;20.60;48.60;;;;;;4942918;28;45054;-61
2022/05/01 05:24:41;;;;;;;1.77;1.67;;;20.60;48.60;;;;;;4939644;28;45394;-60
2022/05/01 05:27:06;;;;;;;1.67;1.58;;;20.60;48.60;;;;;;4935646;28;46032;-61
2022/05/01 05:29:32;;;;;;;1.80;1.70;;;20.60;48.60;;;;;;4918347;28;44929;-61
2022/05/01 05:31:58;;;;;;;1.80;1.70;;;20.60;48.60;;;;;;4932601;28;45076;-61
2022/05/01 05:34:23;;;;;;;2.72;1.85;;;20.60;48.60;;;;;;4939405;28;45313;-60
2022/05/01 05:36:49;;;;;;;1.50;1.40;;;20.50;48.60;;;;;;4941768;28;46170;-61
2022/05/01 05:39:14;;;;;;;1.80;1.70;;;20.60;48.70;;;;;;4916912;28;44651;-59
2022/05/01 05:41:40;;;;;;;1.40;1.30;;;20.50;48.70;;;;;;4928032;28;45609;-60
2022/05/01 05:44:06;;;;;;;1.52;1.42;;;20.50;48.70;;;;;;4939106;28;45566;-60
2022/05/01 05:46:32;;;;;;;1.85;1.73;;;20.60;48.70;;;;;;4938728;28;47369;-59
2022/05/01 05:48:57;;;;;;;1.70;1.60;;;20.60;48.70;;;;;;4916124;28;45585;-61
2022/05/01 05:51:23;;;;;;;1.60;1.50;;;20.50;48.60;;;;;;4929348;28;44783;-60
2022/05/01 05:53:52;;;;;;;1.60;1.50;;;20.60;48.60;;;;;;4918307;28;44698;-58
2022/05/01 05:56:18;;;;;;;1.92;1.83;;;20.50;48.60;;;;;;4921197;28;45331;-60
2022/05/01 05:58:43;;;;;;;1.67;1.58;;;20.50;48.60;;;;;;4945630;28;45266;-58
2022/05/01 06:01:10;;;;;;;1.92;1.73;;;20.50;48.60;;;;;;4916918;28;45517;-58
2022/05/01 06:03:36;;;;;;;1.65;1.52;;;20.50;48.70;;;;;;4914880;28;45372;-58
2022/05/01 06:06:02;;;;;;;1.63;1.40;;;20.50;48.60;;;;;;4897435;28;45252;-60
2022/05/01 06:08:28;;;;;;;1.40;1.30;;;20.50;48.60;;;;;;4924808;28;45288;-59
2022/05/01 06:10:53;;;;;;;2.03;1.80;;;20.50;48.70;;;;;;4943685;28;45271;-59
2022/05/01 06:13:19;;;;;;;1.50;1.40;;;20.50;48.60;;;;;;4933605;28;45108;-61
2022/05/01 06:15:45;;;;;;;2.33;2.10;;;20.50;48.60;;;;;;4893943;28;45233;-62
2022/05/01 06:18:10;;;;;;;1.70;1.60;;;20.50;48.60;;;;;;4907578;28;46249;-61
2022/05/01 06:20:37;;;;;;;1.60;1.50;;;20.50;48.60;;;;;;4915723;28;45231;-61
2022/05/01 06:23:02;;;;;;;1.67;1.58;;;20.50;48.70;;;;;;4948557;28;45368;-60
2022/05/01 06:25:28;;;;;;;2.00;1.80;;;20.50;48.60;;;;;;4916972;28;45199;-61
2022/05/01 06:27:54;;;;;;;1.70;1.60;;;20.50;48.60;;;;;;4902184;28;45404;-61
2022/05/01 06:30:19;;;;;;;1.52;1.42;;;20.50;48.60;;;;;;4908060;28;45367;-60
2022/05/01 06:32:45;;;;;;;1.58;1.48;;;20.50;48.70;;;;;;4905704;28;45520;-61
2022/05/01 06:35:11;;;;;;;1.50;1.40;;;20.50;48.70;;;;;;4908286;28;45815;-61
2022/05/01 06:37:37;;;;;;;1.83;1.73;;;20.50;48.70;;;;;;4910340;28;45499;-60
2022/05/01 06:40:03;;;;;;;1.60;1.50;;;20.50;48.60;;;;;;4895594;28;45777;-59
2022/05/01 06:42:30;;;;;;;1.88;1.75;;;20.50;48.70;;;;;;4928191;28;44810;-59
2022/05/01 06:44:55;;;;;;;1.58;1.48;;;20.50;48.70;;;;;;4881800;28;46671;-61
2022/05/01 06:47:21;;;;;;;1.83;1.73;;;20.50;48.60;;;;;;4913191;28;45044;-60
2022/05/01 06:49:46;;;;;;;1.42;1.33;;;20.50;48.60;;;;;;4912917;28;44662;-59
2022/05/01 06:52:12;;;;;;;1.40;1.30;;;20.50;48.70;;;;;;4909556;28;45447;-60
2022/05/01 06:54:39;;;;;;;1.83;1.73;;;20.50;48.70;;;;;;4910350;28;46465;-60
2022/05/01 06:57:05;;;;;;;1.50;1.40;;;20.50;48.70;;;;;;4912380;28;45696;-60
2022/05/01 06:59:31;;;;;;;1.83;1.73;;;20.50;48.70;;;;;;4907963;28;45299;-61
2022/05/01 07:01:56;;;;;;;1.70;1.60;;;20.50;48.70;;;;;;4908481;28;44855;-59
2022/05/01 07:04:22;;;;;;;1.70;1.60;;;20.50;48.70;;;;;;4911579;28;45275;-61
2022/05/01 07:06:47;;;;;;;1.88;1.73;;;20.50;48.60;;;;;;4896654;28;45856;-59
2022/05/01 07:09:13;;;;;;;1.40;1.30;;;20.50;48.60;;;;;;4909869;28;46609;-60
2022/05/01 07:11:39;;;;;;;1.73;1.63;;;20.50;48.60;;;;;;4892584;28;44832;-61
2022/05/01 07:14:04;;;;;;;1.98;1.70;;;20.50;48.60;;;;;;4925355;28;46174;-60
2022/05/01 07:16:30;;;;;;;1.70;1.60;;;20.50;48.60;;;;;;4929404;28;45591;-61
2022/05/01 07:18:55;;;;;;;1.60;1.50;;;20.60;48.70;;;;;;4931209;28;45290;-61
2022/05/01 07:21:21;;;;;;;1.90;1.60;;;20.50;48.80;;;;;;4908368;28;46764;-61
2022/05/01 07:23:46;;;;;;;1.92;1.83;;;20.50;48.60;;;;;;4912126;28;45477;-61
2022/05/01 07:26:12;;;;;;;1.73;1.63;;;20.50;48.70;;;;;;4929821;28;44788;-60
2022/05/01 07:28:39;;;;;;;1.80;1.70;;;20.50;48.60;;;;;;4909693;28;45326;-61
2022/05/01 07:31:05;;;;;;;1.50;1.40;;;20.50;48.60;;;;;;4907672;28;45185;-59
2022/05/01 07:33:31;;;;;;;1.80;1.67;;;20.60;48.60;;;;;;4891668;28;45489;-62
2022/05/01 07:35:58;;;;;;;1.75;1.65;;;20.60;48.40;;;;;;4898151;28;45405;-60
2022/05/01 07:38:23;;;;;;;1.80;1.70;;;20.60;48.40;;;;;;4914342;28;45058;-61
2022/05/01 07:40:49;;;;;;;1.58;1.48;;;20.60;48.80;;;;;;4929998;28;45580;-60
2022/05/01 07:43:15;;;;;;;1.58;1.48;;;20.60;48.30;;;;;;4930581;28;46557;-60
2022/05/01 07:45:41;;;;;;;1.80;1.70;;;20.60;48.40;;;;;;4915409;28;45334;-61
2022/05/01 07:48:07;;;;;;;1.80;1.70;;;20.60;48.40;;;;;;4899256;28;45186;-59
2022/05/01 07:50:33;;;;;;;1.95;1.85;;;20.60;48.40;;;;;;4932720;28;45290;-58
2022/05/01 07:52:58;;;;;;;1.73;1.63;;;20.60;48.40;;;;;;4901872;28;45800;-59
2022/05/01 07:55:24;;;;;;;1.58;1.48;;;20.60;48.30;;;;;;4931220;28;45316;-60
2022/05/01 07:57:49;;;;;;;1.83;1.73;;;20.70;49.00;;;;;;4913090;28;45897;-60
2022/05/01 08:00:15;;;;;;;2.67;1.98;;;20.70;48.30;;;;;;4911624;28;45403;-60
2022/05/01 08:05:25;;;;;;;1.50;1.40;;;20.70;48.20;;;;;;4914893;28;45679;-61
2022/05/01 08:07:51;;;;;;;2.13;1.85;;;20.70;48.20;;;;;;4915285;28;45413;-57
2022/05/01 08:10:17;;;;;;;1.60;1.50;;;20.70;48.20;;;;;;4914175;28;45306;-61
2022/05/01 08:12:42;;;;;;;1.75;1.65;;;20.70;48.20;;;;;;4894830;28;45281;-61
2022/05/01 08:15:09;;;;;;;1.80;1.70;;;20.70;48.20;;;;;;4915758;28;45483;-59
2022/05/01 08:17:34;;;;;;;1.65;1.55;;;20.80;48.20;;;;;;4896870;28;45482;-60
2022/05/01 08:22:44;;;;;;;2.78;1.58;;;20.70;48.20;;;;;;4930956;28;46836;-61
2022/05/01 08:25:10;;;;;;;1.70;1.60;;;20.80;48.20;;;;;;4927850;28;45278;-62
2022/05/01 08:27:36;;;;;;;1.83;1.73;;;20.80;48.20;;;;;;4928800;28;45307;-60
2022/05/01 08:30:02;;;;;;;1.90;1.80;;;20.80;48.20;;;;;;4927072;28;45261;-63
2022/05/01 08:32:27;;;;;;;1.67;1.58;;;20.80;48.20;;;;;;4902558;28;45548;-61
2022/05/01 08:34:53;;;;;;;1.75;1.65;;;20.80;48.20;;;;;;4904552;28;45676;-62
2022/05/01 08:37:18;;;;;;;1.98;1.75;;;20.80;48.10;;;;;;4907307;28;46964;-61
2022/05/01 08:39:44;;;;;;;1.60;1.50;;;20.80;48.10;;;;;;4911138;28;45328;-62
2022/05/01 08:42:10;;;;;;;2.15;1.95;;;20.80;48.00;;;;;;4916456;28;45342;-60
2022/05/01 08:44:36;;;;;;;1.77;1.65;;;20.90;48.10;;;;;;4923625;28;45410;-60
2022/05/01 08:47:26;;;;;;;1.33;1.23;;;20.90;48.10;;;;;;4924899;28;45635;-62
2022/05/01 08:50:12;;;;;;;1.48;1.38;;;20.90;48.10;;;;;;4897598;28;45649;-61
2022/05/01 08:52:58;;;;;;;1.70;1.60;;;20.90;48.10;;;;;;4911038;28;47382;-61
2022/05/01 08:55:45;;;;;;;1.65;1.55;;;20.90;48.10;;;;;;4894047;28;47052;-60
2022/05/01 08:58:31;;;;;;;1.50;1.40;;;20.90;48.10;;;;;;4896794;28;45359;-61
2022/05/01 09:00:58;;;;;;;1.60;1.50;;;20.90;48.10;;;;;;4918790;28;45616;-61
2022/05/01 09:03:25;;;;;;;1.80;1.70;;;20.90;48.10;;;;;;4898813;28;45574;-60
2022/05/01 09:05:51;;;;;;;1.60;1.50;;;20.90;48.00;;;;;;4906497;28;45212;-61
2022/05/01 09:08:16;;;;;;;1.75;1.65;;;20.90;48.00;;;;;;4905615;28;45264;-62
2022/05/01 09:10:43;;;;;;;2.22;1.80;;;20.90;47.90;;;;;;4923852;28;45458;-61
2022/05/01 09:13:09;;;;;;;1.65;1.55;;;21.00;47.90;;;;;;4924142;28;45283;-61
2022/05/01 09:15:41;;;;;;;1.80;1.70;;;21.00;47.90;;;;;;4907073;28;45613;-61
2022/05/01 09:18:08;;;;;;;1.80;1.70;;;21.00;47.90;;;;;;4907211;28;45395;-61
2022/05/01 09:20:42;;;;;;;1.70;1.60;;;21.00;47.90;;;;;;4905846;28;45500;-61
2022/05/01 09:23:08;;;;;;;2.10;1.90;;;21.00;47.90;;;;;;4889392;28;46077;-61
2022/05/01 09:25:34;;;;;;;2.13;1.92;;;21.00;47.80;;;;;;4907539;28;45431;-62
2022/05/01 09:28:17;;;;;;;1.67;1.58;;;21.00;47.90;;;;;;4900951;28;45320;-60
2022/05/01 09:30:44;;;;;;;;;;;21.00;47.80;;;;;;4926090;28;46195;-62
2022/05/01 09:33:19;;;;;;;1.75;1.65;;;21.00;47.60;;;;;;4907901;28;47040;-62
2022/05/01 09:35:45;;;;;;;1.98;1.70;;;21.10;47.70;;;;;;4904644;28;46137;-60
2022/05/01 09:38:26;;;;;;;1.60;1.50;;;21.10;47.70;;;;;;4900789;28;45252;-61
2022/05/01 09:40:58;;;;;;;1.80;1.70;;;21.10;48.30;;;;;;4924269;28;45368;-61
2022/05/01 09:43:45;;;;;;;1.80;1.70;;;21.10;47.70;;;;;;4890269;28;46996;-61
2022/05/01 09:46:29;;;;;;;1.80;1.70;;;21.10;47.60;;;;;;4910376;28;45142;-60
2022/05/01 09:49:00;;;;;;;1.80;1.70;;;21.20;47.60;;;;;;4927039;28;44838;-61
2022/05/01 09:51:36;;;;;;;1.85;1.67;;;21.10;47.60;;;;;;4928806;28;45551;-59
2022/05/01 09:54:02;;;;;;;1.75;1.65;;;21.10;47.60;;;;;;4908970;28;45594;-62
2022/05/01 09:56:33;;;;;;;1.88;1.75;;;21.20;47.70;;;;;;4912859;28;45323;-61
2022/05/01 09:59:02;;;;;;;1.70;1.60;;;21.10;47.60;;;;;;4913917;28;45348;-59
2022/05/01 10:01:28;;;;;;;1.80;1.70;;;21.20;47.60;;;;;;4910475;28;45651;-61
2022/05/01 10:03:54;;;;;;;1.90;1.63;;;21.20;47.60;;;;;;4914048;28;45745;-61
2022/05/01 10:06:20;;;;;;;1.70;1.58;;;21.20;47.60;;;;;;4912405;28;45260;-61
2022/05/01 10:08:46;;;;;;;1.83;1.73;;;21.20;47.60;;;;;;4910912;28;45227;-61
2022/05/01 10:11:17;;;;;;;1.60;1.50;;;21.20;47.60;;;;;;4911974;28;45624;-60
2022/05/01 10:13:44;;;;;;;1.67;1.58;;;21.20;47.60;;;;;;4909500;28;45262;-62
2022/05/01 10:16:11;;;;;;;1.77;1.67;;;21.20;47.60;;;;;;4928498;28;45151;-61
2022/05/01 10:18:37;;;;;;;2.03;1.88;;;21.20;47.60;;;;;;4907156;28;45246;-60
2022/05/01 10:21:23;;;;;;;1.60;1.50;;;21.20;47.60;;;;;;4910805;28;45295;-60
2022/05/01 10:24:09;;;;;;;1.77;1.67;;;21.20;47.60;;;;;;4910263;28;45286;-61
2022/05/01 10:27:15;;;;;;;1.90;1.80;;;21.20;47.70;;;;;;4908732;28;45720;-60
2022/05/01 10:33:41;;;;;;;1.88;1.75;;;21.20;47.60;;;;;;4914959;28;45386;-59
2022/05/01 10:36:26;;;;;;;1.90;1.80;;;21.30;47.60;;;;;;4911807;28;46064;-61
2022/05/01 10:39:10;;;;;;;1.48;1.38;;;21.30;47.60;;;;;;4912339;28;45586;-61
2022/05/01 10:41:43;;;;;;;2.05;1.85;;;21.20;47.50;;;;;;4911930;28;45482;-61
2022/05/01 10:44:30;;;;;;;1.73;1.63;;;21.20;47.60;;;;;;4930172;28;45346;-62
2022/05/01 10:47:04;;;;;;;1.95;1.77;;;21.30;47.60;;;;;;4911555;28;47502;-61
2022/05/01 10:49:34;;;;;;;2.00;1.90;;;21.30;47.50;;;;;;4929761;28;45529;-60
2022/05/01 10:52:19;;;;;;;1.98;1.83;;;21.30;47.60;;;;;;4923280;28;45277;-62
2022/05/01 10:55:04;;;;;;;1.98;1.73;;;21.30;47.50;;;;;;4936138;28;44764;-62
2022/05/01 10:57:30;;;;;;;2.05;1.90;;;21.30;47.50;;;;;;4938908;28;45689;-61
2022/05/01 11:00:12;;;;;;;2.00;1.90;;;21.30;47.50;;;;;;4917551;28;45250;-62
2022/05/01 11:02:39;;;;;;;2.10;2.00;;;21.30;47.40;;;;;;4903337;28;45222;-62
2022/05/01 11:05:07;;;;;;;2.10;1.90;;;21.40;47.50;;;;;;4924047;28;45372;-61
2022/05/01 11:07:35;;;;;;;1.70;1.60;;;21.40;47.50;;;;;;4916272;28;45268;-61
2022/05/01 11:10:01;;;;;;;1.95;1.73;;;21.40;47.50;;;;;;4909836;28;45295;-62
2022/05/01 11:12:27;;;;;;;1.83;1.73;;;21.40;47.50;;;;;;4911227;28;45079;-62
2022/05/01 11:15:09;;;;;;;1.80;1.70;;;21.40;47.50;;;;;;4920778;28;45114;-61
2022/05/01 11:17:41;;;;;;;1.80;1.70;;;21.40;47.40;;;;;;4909797;28;45512;-62
2022/05/01 11:20:14;;;;;;;2.08;1.90;;;21.40;47.50;;;;;;4912360;28;45149;-62
2022/05/01 11:22:40;;;;;;;1.75;1.65;;;21.40;47.50;;;;;;4903331;28;45389;-62
2022/05/01 11:25:10;;;;;;;2.28;1.88;;;21.40;47.50;;;;;;4923028;28;45444;-60
2022/05/01 11:27:51;;;;;;;2.00;1.80;;;21.40;47.50;;;;;;4924879;28;46885;-62
2022/05/01 11:30:22;;;;;;;1.98;1.88;;;21.40;47.40;;;;;;4920796;28;45860;-61
2022/05/01 11:32:51;;;;;;;1.80;1.70;;;21.40;47.40;;;;;;4915665;28;45513;-61
2022/05/01 11:35:17;;;;;;;2.00;1.88;;;21.40;47.40;;;;;;4926950;28;45519;-62
2022/05/01 11:37:47;;;;;;;1.80;1.70;;;21.40;47.40;;;;;;4915887;28;45773;-62
2022/05/01 11:40:20;;;;;;;2.10;1.90;;;21.50;47.40;;;;;;4917297;28;45128;-61
2022/05/01 11:42:46;;;;;;;1.73;1.63;;;21.50;47.50;;;;;;4924405;28;45192;-62
2022/05/01 11:45:12;;;;;;;1.90;1.70;;;21.40;47.40;;;;;;4921023;28;46024;-62
2022/05/01 11:47:38;;;;;;;1.90;1.80;;;21.50;47.50;;;;;;4916153;28;46206;-62
2022/05/01 11:50:05;;;;;;;1.95;1.75;;;21.50;47.50;;;;;;4916015;28;45220;-61
2022/05/01 11:52:36;;;;;;;1.70;1.60;;;21.50;47.50;;;;;;4905042;28;45301;-61
2022/05/01 11:55:06;;;;;;;2.30;2.10;;;21.50;47.50;;;;;;4896499;28;44885;-62
2022/05/01 12:03:05;;;;;;;2.00;1.80;;;21.50;47.50;;;;;;4907511;28;45415;-62
2022/05/01 12:05:32;;;;;;;1.67;1.58;;;21.50;47.50;;;;;;4924554;28;45135;-62
2022/05/01 12:07:57;;;;;;;1.70;1.60;;;21.50;47.50;;;;;;4918483;28;45309;-61
2022/05/01 12:10:23;;;;;;;1.85;1.75;;;21.50;47.50;;;;;;4935680;28;45015;-61
2022/05/01 12:12:49;;;;;;;1.85;1.75;;;21.50;47.50;;;;;;4941716;28;44689;-61
2022/05/01 12:15:15;;;;;;;1.95;1.85;;;21.50;47.40;;;;;;4917519;28;44764;-62
2022/05/01 12:17:41;;;;;;;1.90;1.80;;;21.50;47.40;;;;;;4917837;28;46626;-61
2022/05/01 12:20:07;;;;;;;1.83;1.70;;;21.50;47.40;;;;;;4940745;28;45186;-61
2022/05/01 12:22:37;;;;;;;1.90;1.80;;;21.50;47.40;;;;;;4931203;28;45141;-60
2022/05/01 12:25:07;;;;;;;2.17;1.98;;;21.50;47.40;;;;;;4945289;28;45534;-62
2022/05/01 12:27:34;;;;;;;1.90;1.77;;;21.50;47.40;;;;;;4919329;28;45750;-62
2022/05/01 12:30:04;;;;;;;1.92;1.83;;;21.60;48.00;;;;;;4922504;28;45177;-62
2022/05/01 12:32:31;;;;;;;2.00;1.80;;;21.60;47.40;;;;;;4924769;28;45547;-62
2022/05/01 12:34:57;;;;;;;2.50;1.90;;;21.50;47.40;;;;;;4910225;28;45222;-61
2022/05/01 12:37:27;;;;;;;2.15;1.85;;;21.60;47.50;;;;;;4933834;28;45301;-63
2022/05/01 12:39:56;;;;;;;2.05;1.75;;;21.60;47.40;;;;;;4937726;28;45289;-59
2022/05/01 12:45:18;;;;;;;2.25;1.92;;;21.50;47.40;;;;;;4927258;28;45160;-60
2022/05/01 12:47:48;;;;;;;1.85;1.65;;;21.60;47.40;;;;;;4902228;28;45428;-59
2022/05/01 12:50:21;;;;;;;2.03;1.85;;;21.60;47.40;;;;;;4930200;28;44874;-59
2022/05/01 12:52:48;;;;;;;2.00;1.90;;;21.60;47.40;;;;;;4939322;28;44864;-62
2022/05/01 12:55:22;;;;;;;2.05;1.70;;;21.60;47.40;;;;;;4900683;28;45159;-60
2022/05/01 12:57:53;;;;;;;2.22;2.03;;;21.60;47.40;;;;;;4920381;28;45242;-62
2022/05/01 13:00:42;;;;;;;2.33;2.13;;;21.60;47.40;;;;;;4904004;28;44898;-58
2022/05/01 13:03:30;;;;;;;1.55;1.45;;;21.60;47.40;;;;;;4936250;28;45177;-58
2022/05/01 13:06:09;;;;;;;1.75;1.65;;;21.60;47.40;;;;;;4918619;28;45261;-60
2022/05/01 13:08:41;;;;;;;2.30;2.10;;;21.60;47.40;;;;;;4927059;28;45673;-60
2022/05/01 13:11:27;;;;;;;1.83;1.73;;;21.60;47.40;;;;;;4926385;28;45120;-60
2022/05/01 13:13:53;;;;;;;2.17;1.98;;;21.60;47.40;;;;;;4936051;28;45239;-60
2022/05/01 13:16:23;;;;;;;1.92;1.83;;;21.60;47.40;;;;;;4928830;28;44975;-60
2022/05/01 13:18:51;;;;;;;2.10;1.90;;;21.60;47.40;;;;;;4930169;28;45626;-59
2022/05/01 13:21:17;;;;;;;2.00;1.80;;;21.60;47.40;;;;;;4899111;28;45293;-60
2022/05/01 13:23:42;;;;;;;1.98;1.83;;;21.60;47.40;;;;;;4938562;28;45198;-61
2022/05/01 13:26:08;;;;;;;1.77;1.67;;;21.60;47.40;;;;;;4886765;28;45464;-60
2022/05/01 13:28:34;;;;;;;1.85;1.73;;;21.60;47.40;;;;;;4909709;28;46184;-61
2022/05/01 13:31:01;;;;;;;2.20;2.00;;;21.60;47.50;;;;;;4927161;28;45146;-58
2022/05/01 13:33:27;;;;;;;1.60;1.50;;;21.60;47.50;;;;;;4890611;28;45522;-61
2022/05/01 13:35:52;;;;;;;1.95;1.85;;;21.60;47.50;;;;;;4889623;28;45677;-60
2022/05/01 13:38:18;;;;;;;1.80;1.70;;;21.60;47.50;;;;;;4896609;28;45496;-59
2022/05/01 13:46:12;;;;;;;1.90;1.80;;;21.50;47.50;;;;;;4915419;28;45244;-58
2022/05/01 13:48:38;;;;;;;2.00;1.80;;;21.60;47.50;;;;;;4930277;28;45544;-59
2022/05/01 13:51:04;;;;;;;2.00;1.80;;;21.50;47.40;;;;;;4893443;28;45315;-61
2022/05/01 13:53:29;;;;;;;2.22;2.03;;;21.50;47.50;;;;;;4914948;28;45460;-58
2022/05/01 13:55:57;;;;;;;2.20;2.03;;;21.50;47.50;;;;;;4911188;28;45336;-61
2022/05/01 13:58:23;;;;;;;1.88;1.77;;;21.50;47.50;;;;;;4912555;28;45835;-61
2022/05/01 14:00:49;;;;;;;1.80;1.70;;;21.50;47.50;;;;;;4898195;28;45426;-60
2022/05/01 14:03:15;;;;;;;2.05;1.90;;;21.50;47.50;;;;;;4895394;28;44761;-65
2022/05/01 14:05:40;;;;;;;2.00;1.80;;;21.50;48.10;;;;;;4911416;28;45379;-60
2022/05/01 14:08:07;;;;;;;1.80;1.70;;;21.50;47.50;;;;;;4886238;28;45393;-60
2022/05/01 14:10:34;;;;;;;2.70;2.08;;;21.50;47.50;;;;;;4910168;28;45601;-59
2022/05/01 14:13:00;;;;;;;2.20;2.00;;;21.50;47.90;;;;;;4926887;28;45136;-59
2022/05/01 14:15:25;;;;;;;2.00;1.80;;;21.50;47.50;;;;;;4890557;28;45168;-61
2022/05/01 14:17:52;;;;;;;2.58;1.90;;;21.50;47.60;;;;;;4924401;28;45647;-59
2022/05/01 14:20:18;;;;;;;1.60;1.50;;;21.50;47.60;;;;;;4911025;28;45420;-60
2022/05/01 14:22:43;;;;;;;2.42;2.20;;;21.50;47.60;;;;;;4880558;28;45677;-60
2022/05/01 14:25:09;;;;;;;2.40;1.90;;;21.50;47.60;;;;;;4915710;28;45183;-59
2022/05/01 14:27:35;;;;;;;2.10;1.90;;;21.50;47.60;;;;;;4913373;28;45327;-59
2022/05/01 14:30:00;;;;;;;2.38;1.90;;;21.50;47.60;;;;;;4927828;28;45002;-60
2022/05/01 14:32:49;;;;;;;2.00;1.90;;;21.50;47.60;;;;;;4909025;28;45758;-61
2022/05/01 14:35:19;;;;;;;1.90;1.77;;;21.50;47.70;;;;;;4910032;28;45665;-60
2022/05/01 14:37:55;;;;;;;2.20;2.00;;;21.50;47.70;;;;;;4895233;28;45486;-61
2022/05/01 14:40:25;;;;;;;2.20;2.00;;;21.50;47.60;;;;;;4926497;28;45557;-60
2022/05/01 14:42:50;;;;;;;1.67;1.58;;;21.50;47.70;;;;;;4927260;28;45573;-60
2022/05/01 14:45:18;;;;;;;1.77;1.67;;;21.40;47.60;;;;;;4913900;28;45587;-59
2022/05/01 14:48:06;;;;;;;1.55;1.45;;;21.50;47.70;;;;;;4913898;28;45621;-60
2022/05/01 14:50:32;;;;;;;1.98;1.80;;;21.40;47.70;;;;;;4911320;28;45579;-59
2022/05/01 14:52:58;;;;;;;2.35;2.08;;;21.40;47.70;;;;;;4896017;28;45766;-60
2022/05/01 14:55:24;;;;;;;1.95;1.85;;;21.40;47.70;;;;;;4933184;28;45285;-60
2022/05/01 14:57:52;;;;;;;2.00;1.85;;;21.40;47.70;;;;;;4895069;28;47711;-60
2022/05/01 15:08:30;;;;;;;1.90;1.80;;;21.40;47.70;;;;;;4901869;28;46977;-60
2022/05/01 15:10:57;;;;;;;1.83;1.70;;;21.40;47.70;;;;;;4915879;28;45603;-60
2022/05/01 15:13:22;;;;;;;2.15;1.95;;;21.40;47.80;;;;;;4911245;28;45285;-60
2022/05/01 15:16:02;;;;;;;1.60;1.50;;;21.40;47.70;;;;;;4913010;28;45453;-61
2022/05/01 15:18:56;;;;;;;2.05;1.90;;;21.40;47.70;;;;;;4930678;28;46544;-60
2022/05/01 15:24:29;;;;;;;2.00;1.80;;;21.40;47.80;;;;;;4926467;28;45273;-61
2022/05/01 15:26:58;;;;;;;2.00;1.80;;;21.40;47.80;;;;;;4895428;28;45409;-59
2022/05/01 15:29:34;;;;;;;2.00;1.80;;;21.40;47.80;;;;;;4897293;28;45349;-61
2022/05/01 15:32:00;;;;;;;2.17;1.98;;;21.40;47.80;;;;;;4908699;28;45420;-60
2022/05/01 15:34:33;;;;;;;2.25;2.05;;;21.40;47.80;;;;;;4912310;28;45620;-59
2022/05/01 15:36:59;;;;;;;2.03;1.83;;;21.40;47.80;;;;;;4905947;28;45664;-62
2022/05/01 15:39:25;;;;;;;1.73;1.63;;;21.40;47.80;;;;;;4915807;28;47727;-61
2022/05/01 15:41:55;;;;;;;2.15;1.95;;;21.40;47.80;;;;;;4916131;28;44759;-61
2022/05/01 15:44:20;;;;;;;1.90;1.80;;;21.40;47.80;;;;;;4905377;28;45144;-59
2022/05/01 15:46:56;;;;;;;1.80;1.70;;;21.40;47.90;;;;;;4895397;28;45424;-62
2022/05/01 15:54:59;;;;;;;2.17;1.98;;;21.30;48.00;;;;;;4913675;28;46025;-61
2022/05/01 15:57:25;;;;;;;2.20;1.85;;;21.30;48.00;;;;;;4911099;28;45664;-61
2022/05/01 15:59:51;;;;;;;2.10;1.90;;;21.30;48.00;;;;;;4910415;28;47874;-60
2022/05/01 16:02:21;;;;;;;2.45;2.00;;;21.30;48.00;;;;;;4907291;28;45520;-60
2022/05/01 16:04:47;;;;;;;2.05;1.95;;;21.30;47.90;;;;;;4896773;28;44920;-62
2022/05/01 16:07:32;;;;;;;1.75;1.65;;;21.40;47.90;;;;;;4897367;28;45322;-62
2022/05/01 16:10:08;;;;;;;1.90;1.80;;;21.30;47.80;;;;;;4911846;28;45460;-60
2022/05/01 16:12:44;;;;;;;2.10;2.00;;;21.40;47.90;;;;;;4901801;28;45784;-62
2022/05/01 16:15:12;;;;;;;2.03;1.83;;;21.30;47.80;;;;;;4898050;28;45025;-60
2022/05/01 16:17:42;;;;;;;1.90;1.73;;;21.30;47.90;;;;;;4910886;28;46395;-60
2022/05/01 16:20:09;;;;;;;1.83;1.73;;;21.30;47.90;;;;;;4910339;28;46616;-61
2022/05/01 16:23:03;;;;;;;1.80;1.70;;;21.30;47.90;;;;;;4898505;28;45345;-61
2022/05/01 16:25:30;;;;;;;2.17;2.03;;;21.30;47.90;;;;;;4900206;28;45201;-61
2022/05/01 16:27:58;;;;;;;1.67;1.58;;;21.30;47.90;;;;;;4909521;28;45697;-61
2022/05/01 16:30:24;;;;;;;2.78;1.90;;;21.30;48.00;;;;;;4912489;28;45291;-61
2022/05/01 16:33:15;;;;;;;1.80;1.70;;;21.30;48.00;;;;;;4894041;28;45486;-62
2022/05/01 16:35:43;;;;;;;2.08;1.95;;;21.30;47.90;;;;;;4907935;28;45664;-60
2022/05/01 16:38:09;;;;;;;1.77;1.67;;;21.30;48.00;;;;;;4910690;28;45289;-60
2022/05/01 16:40:35;;;;;;;1.77;1.67;;;21.30;48.00;;;;;;4898277;28;46668;-61